createdAt,value
2023-10-13T00:02:05.836Z,76.39
2023-10-13T00:04:36.635Z,75.92
2023-10-13T00:07:24.879Z,75.80
2023-10-13T00:10:11.170Z,76.07
2023-10-13T00:12:39.081Z,75.89
2023-10-13T00:15:14.645Z,76.44
2023-10-13T00:17:43.002Z,76.00
2023-10-13T00:20:33.642Z,76.16
2023-10-13T00:23:00.672Z,76.00
2023-10-13T00:25:32.877Z,75.66
2023-10-13T00:28:02.435Z,75.61
2023-10-13T00:30:34.998Z,75.18
2023-10-13T00:33:02.225Z,75.24
2023-10-13T00:35:36.795Z,74.76
2023-10-13T00:38:18.173Z,74.91
2023-10-13T00:40:53.374Z,74.42
2023-10-13T00:43:22.562Z,74.15
2023-10-13T00:45:58.697Z,73.81
2023-10-13T00:48:35.381Z,73.90
2023-10-13T00:51:19.220Z,73.49
2023-10-13T00:53:48.444Z,73.62
2023-10-13T00:56:28.249Z,73.51
2023-10-13T00:59:00.416Z,73.23
2023-10-13T01:01:33.994Z,73.03
2023-10-13T01:04:03.442Z,73.20
2023-10-13T01:06:31.838Z,73.32
2023-10-13T01:09:20.112Z,72.93
2023-10-13T01:11:53.282Z,73.25
2023-10-13T01:14:21.849Z,73.02
2023-10-13T01:16:53.835Z,73.12
2023-10-13T01:19:25.919Z,72.98
2023-10-13T01:22:03.896Z,72.80
2023-10-13T01:24:38.288Z,72.72
2023-10-13T01:27:19.057Z,72.91
2023-10-13T01:29:52.043Z,73.32
2023-10-13T01:32:22.459Z,72.70
2023-10-13T01:34:51.165Z,73.13
2023-10-13T01:37:20.507Z,72.91
2023-10-13T01:39:49.088Z,72.06
2023-10-13T01:42:22.822Z,71.91
2023-10-13T01:44:50.151Z,71.57
2023-10-13T01:47:17.869Z,71.20
2023-10-13T01:49:48.714Z,71.00
2023-10-13T01:52:17.326Z,71.27
2023-10-13T01:54:49.947Z,71.27
2023-10-13T01:57:19.917Z,70.44
2023-10-13T01:59:51.051Z,70.55
2023-10-13T02:02:31.272Z,70.92
2023-10-13T02:05:02.348Z,70.29
2023-10-13T02:07:35.559Z,70.14
2023-10-13T02:10:06.523Z,70.13
2023-10-13T02:12:45.263Z,70.01
2023-10-13T02:15:22.887Z,69.81
2023-10-13T02:17:53.200Z,69.69
2023-10-13T02:20:23.855Z,69.31
2023-10-13T02:22:51.559Z,69.13
2023-10-13T02:25:39.045Z,69.14
2023-10-13T02:28:14.600Z,68.99
2023-10-13T02:30:46.052Z,69.33
2023-10-13T02:33:14.737Z,69.33
2023-10-13T02:35:42.579Z,69.48
2023-10-13T02:38:12.784Z,69.24
2023-10-13T02:40:40.437Z,69.24
2023-10-13T02:43:07.759Z,69.00
2023-10-13T02:45:38.062Z,69.01
2023-10-13T02:48:14.898Z,68.65
2023-10-13T02:50:46.855Z,68.84
2023-10-13T02:53:13.870Z,68.90
2023-10-13T02:55:53.720Z,69.18
2023-10-13T02:58:21.888Z,69.29
2023-10-13T03:00:49.547Z,68.98
2023-10-13T03:03:19.685Z,69.33
2023-10-13T03:05:47.240Z,69.18
2023-10-13T03:08:19.133Z,68.98
2023-10-13T03:10:49.537Z,69.17
2023-10-13T03:13:16.625Z,69.43
2023-10-13T03:15:48.570Z,69.25
2023-10-13T03:18:19.535Z,69.18
2023-10-13T03:20:51.396Z,69.42
2023-10-13T03:23:18.500Z,69.29
2023-10-13T03:25:50.714Z,69.21
2023-10-13T03:28:24.982Z,69.42
2023-10-13T03:30:54.179Z,69.75
2023-10-13T03:33:27.528Z,69.75
2023-10-13T03:35:55.470Z,69.49
2023-10-13T03:38:28.114Z,69.72
2023-10-13T03:41:09.228Z,69.77
2023-10-13T03:43:53.806Z,70.20
2023-10-13T03:46:23.167Z,70.04
2023-10-13T03:48:53.907Z,70.03
2023-10-13T03:51:21.485Z,69.62
2023-10-13T03:53:55.239Z,69.58
2023-10-13T03:56:39.963Z,69.50
2023-10-13T03:59:20.149Z,69.23
2023-10-13T04:01:59.808Z,69.08
2023-10-13T04:04:33.326Z,69.21
2023-10-13T04:07:06.568Z,69.13
2023-10-13T04:09:33.542Z,68.87
2023-10-13T04:12:05.936Z,68.52
2023-10-13T04:14:53.523Z,68.18
2023-10-13T04:17:24.087Z,67.76
2023-10-13T04:20:08.950Z,67.19
2023-10-13T04:22:50.212Z,67.12
2023-10-13T04:25:43.348Z,66.84
2023-10-13T04:28:16.822Z,67.22
2023-10-13T04:30:59.304Z,67.44
2023-10-13T04:33:37.092Z,67.42
2023-10-13T04:36:37.180Z,67.26
2023-10-13T04:39:04.892Z,67.15
2023-10-13T04:41:46.549Z,66.91
2023-10-13T04:44:38.234Z,66.68
2023-10-13T04:47:05.394Z,66.70
2023-10-13T04:49:43.835Z,66.08
2023-10-13T04:52:11.532Z,66.29
2023-10-13T04:54:50.612Z,66.13
2023-10-13T04:57:23.889Z,65.51
2023-10-13T05:00:10.621Z,66.05
2023-10-13T05:03:05.097Z,65.36
2023-10-13T05:05:50.948Z,65.45
2023-10-13T05:08:36.556Z,65.76
2023-10-13T05:11:40.616Z,65.38
2023-10-13T05:14:26.082Z,64.85
2023-10-13T05:17:30.245Z,64.27
2023-10-13T05:20:17.960Z,64.42
2023-10-13T05:23:03.534Z,63.91
2023-10-13T05:25:48.830Z,63.79
2023-10-13T05:28:35.810Z,63.66
2023-10-13T05:31:40.288Z,62.32
2023-10-13T05:34:25.737Z,62.69
2023-10-13T05:37:29.671Z,62.83
2023-10-13T05:40:33.559Z,62.79
2023-10-13T05:43:18.889Z,62.77
2023-10-13T05:46:24.188Z,63.22
2023-10-13T05:49:00.361Z,62.43
2023-10-13T05:51:34.509Z,62.27
2023-10-13T05:54:17.045Z,62.05
2023-10-13T05:57:10.419Z,62.18
2023-10-13T05:59:57.383Z,62.16
2023-10-13T06:02:44.036Z,61.53
2023-10-13T06:05:32.068Z,61.76
2023-10-13T06:08:18.013Z,62.00
2023-10-13T06:11:04.345Z,62.59
2023-10-13T06:13:49.937Z,62.26
2023-10-13T06:16:37.009Z,62.06
2023-10-13T06:19:23.296Z,62.09
2023-10-13T06:22:08.981Z,62.73
2023-10-13T06:24:54.471Z,62.37
2023-10-13T06:27:39.797Z,62.10
2023-10-13T06:30:07.573Z,62.42
2023-10-13T06:32:34.782Z,62.81
2023-10-13T06:35:07.650Z,62.80
2023-10-13T06:37:35.313Z,63.78
2023-10-13T06:40:26.981Z,63.66
2023-10-13T06:42:56.223Z,63.70
2023-10-13T06:45:23.245Z,63.52
2023-10-13T06:47:54.675Z,63.04
2023-10-13T06:50:25.354Z,63.53
2023-10-13T06:52:55.856Z,63.52
2023-10-13T06:55:29.848Z,63.45
2023-10-13T06:58:01.422Z,62.80
2023-10-13T07:00:35.567Z,63.59
2023-10-13T07:03:19.079Z,63.03
2023-10-13T07:05:49.420Z,62.79
2023-10-13T07:08:24.984Z,62.63
2023-10-13T07:11:09.380Z,63.09
2023-10-13T07:13:39.414Z,63.49
2023-10-13T07:16:16.402Z,62.71
2023-10-13T07:18:56.434Z,62.70
2023-10-13T07:21:32.108Z,62.01
2023-10-13T07:24:09.188Z,61.82
2023-10-13T07:26:44.059Z,62.45
2023-10-13T07:29:11.972Z,62.40
2023-10-13T07:31:41.630Z,62.32
2023-10-13T07:34:14.055Z,61.48
2023-10-13T07:36:44.399Z,61.86
2023-10-13T07:39:24.972Z,61.14
2023-10-13T07:42:04.634Z,61.51
2023-10-13T07:44:34.783Z,61.24
2023-10-13T07:47:08.677Z,61.07
2023-10-13T07:49:40.807Z,60.91
2023-10-13T07:52:28.183Z,60.61
2023-10-13T07:55:00.839Z,60.69
2023-10-13T07:57:30.622Z,60.96
2023-10-13T08:00:26.659Z,60.77
2023-10-13T08:03:29.582Z,61.00
2023-10-13T08:06:11.791Z,60.34
2023-10-13T08:08:39.795Z,60.28
2023-10-13T08:11:25.656Z,58.46
2023-10-13T08:14:22.379Z,58.87
2023-10-13T08:17:04.910Z,58.36
2023-10-13T08:19:41.618Z,59.13
2023-10-13T08:22:19.437Z,59.03
2023-10-13T08:24:51.383Z,59.73
2023-10-13T08:27:57.552Z,60.29
2023-10-13T08:30:27.868Z,59.29
2023-10-13T08:32:59.401Z,60.05
2023-10-13T08:35:36.607Z,59.81
2023-10-13T08:38:29.156Z,60.49
2023-10-13T08:41:16.413Z,60.69
2023-10-13T08:43:52.582Z,60.95
2023-10-13T08:46:31.312Z,60.40
2023-10-13T08:49:15.930Z,60.12
2023-10-13T08:51:47.876Z,59.81
2023-10-13T08:54:35.304Z,59.56
2023-10-13T08:57:34.281Z,59.88
2023-10-13T09:00:21.547Z,60.53
2023-10-13T09:03:01.092Z,59.32
2023-10-13T09:05:59.882Z,60.27
2023-10-13T09:08:46.641Z,59.83
2023-10-13T09:11:14.370Z,59.69
2023-10-13T09:13:53.163Z,60.49
2023-10-13T09:16:40.333Z,60.09
2023-10-13T09:19:07.381Z,57.58
2023-10-13T09:21:41.161Z,59.00
2023-10-13T09:24:23.981Z,59.27
2023-10-13T09:26:56.981Z,59.43
2023-10-13T09:29:25.368Z,59.68
2023-10-13T09:32:05.459Z,58.55
2023-10-13T09:34:35.969Z,58.98
2023-10-13T09:37:07.438Z,59.47
2023-10-13T09:39:49.439Z,59.07
2023-10-13T09:42:19.265Z,58.91
2023-10-13T09:44:56.822Z,58.73
2023-10-13T09:47:31.506Z,58.21
2023-10-13T09:50:07.092Z,57.92
2023-10-13T09:52:34.931Z,57.84
2023-10-13T09:55:22.585Z,58.55
2023-10-13T09:58:00.403Z,58.27
2023-10-13T10:00:42.163Z,57.42
2023-10-13T10:03:28.109Z,57.96
2023-10-13T10:06:07.009Z,57.63
2023-10-13T10:08:36.090Z,55.86
2023-10-13T10:11:35.365Z,54.13
2023-10-13T10:14:02.278Z,53.56
2023-10-13T10:17:11.896Z,56.40
2023-10-13T10:19:57.810Z,55.00
2023-10-13T10:22:40.609Z,55.44
2023-10-13T10:25:08.879Z,53.33
2023-10-13T10:27:36.545Z,53.45
2023-10-13T10:30:06.646Z,53.76
2023-10-13T10:32:45.403Z,53.76
2023-10-13T10:35:16.329Z,53.21
2023-10-13T10:37:49.871Z,52.76
2023-10-13T10:40:38.543Z,54.25
2023-10-13T10:43:25.572Z,53.54
2023-10-13T10:46:03.585Z,53.48
2023-10-13T10:48:35.177Z,54.76
2023-10-13T10:51:07.990Z,54.12
2023-10-13T10:53:45.217Z,53.37
2023-10-13T10:56:26.948Z,52.50
2023-10-13T10:59:01.272Z,52.21
2023-10-13T11:01:48.084Z,52.69
2023-10-13T11:04:19.373Z,50.80
2023-10-13T11:06:57.559Z,49.96
2023-10-13T11:09:32.020Z,48.85
2023-10-13T11:12:15.065Z,47.67
2023-10-13T11:14:47.851Z,48.69
2023-10-13T11:17:34.377Z,49.86
2023-10-13T11:20:17.626Z,45.45
2023-10-13T11:22:49.312Z,47.44
2023-10-13T11:25:31.306Z,48.77
2023-10-13T11:28:00.385Z,47.68
2023-10-13T11:30:41.887Z,47.46
2023-10-13T11:33:11.748Z,47.95
2023-10-13T11:35:53.967Z,48.69
2023-10-13T11:38:29.513Z,49.27
2023-10-13T11:41:05.805Z,48.04
2023-10-13T11:43:41.195Z,48.45
2023-10-13T11:46:10.740Z,48.38
2023-10-13T11:48:38.959Z,47.72
2023-10-13T11:51:18.526Z,48.68
2023-10-13T11:53:52.899Z,47.43
2023-10-13T11:56:25.267Z,47.83
2023-10-13T11:58:52.862Z,47.82
2023-10-13T12:01:20.071Z,46.89
2023-10-13T12:04:10.049Z,48.36
2023-10-13T12:06:37.634Z,46.95
2023-10-13T12:09:21.304Z,44.97
2023-10-13T12:11:55.407Z,46.06
2023-10-13T12:14:22.570Z,45.18
2023-10-13T12:16:51.720Z,46.15
2023-10-13T12:19:30.205Z,45.89
2023-10-13T12:22:05.162Z,44.40
2023-10-13T12:24:41.105Z,45.14
2023-10-13T12:31:28.279Z,45.25
2023-10-13T12:33:58.850Z,44.49
2023-10-13T12:36:32.436Z,45.36
2023-10-13T12:39:08.093Z,44.60
2023-10-13T12:41:53.849Z,43.37
2023-10-13T12:44:39.238Z,44.64
2023-10-13T12:47:27.013Z,45.24
2023-10-13T12:49:59.461Z,44.34
2023-10-13T12:52:27.119Z,43.85
2023-10-13T12:54:57.628Z,42.34
2023-10-13T12:57:29.435Z,41.37
2023-10-13T12:59:56.902Z,43.24
2023-10-13T13:02:28.080Z,42.62
2023-10-13T13:05:02.903Z,42.27
2023-10-13T13:07:30.704Z,43.48
2023-10-13T13:10:01.084Z,41.98
2023-10-13T13:12:31.577Z,41.81
2023-10-13T13:14:58.676Z,41.57
2023-10-13T13:17:25.845Z,41.13
2023-10-13T13:19:53.012Z,41.83
2023-10-13T13:22:21.735Z,42.48
2023-10-13T13:24:48.789Z,40.74
2023-10-13T13:27:23.351Z,41.18
2023-10-13T13:29:50.489Z,41.32
2023-10-13T13:32:24.979Z,40.03
2023-10-13T13:34:59.876Z,40.07
2023-10-13T13:37:30.573Z,40.71
2023-10-13T13:40:03.261Z,40.34
2023-10-13T13:42:37.605Z,40.86
2023-10-13T13:45:09.717Z,41.19
2023-10-13T13:47:36.792Z,40.78
2023-10-13T13:50:15.628Z,40.76
2023-10-13T13:52:47.114Z,41.36
2023-10-13T13:55:18.328Z,40.19
2023-10-13T13:57:45.586Z,39.83
2023-10-13T14:00:38.003Z,38.76
2023-10-13T14:03:14.196Z,38.13
2023-10-13T14:05:44.794Z,38.82
2023-10-13T14:08:16.148Z,39.30
2023-10-13T14:11:12.620Z,39.21
2023-10-13T14:13:53.570Z,38.53
2023-10-13T14:16:26.778Z,37.93
2023-10-13T14:18:54.023Z,38.56
2023-10-13T14:21:25.139Z,38.66
2023-10-13T14:23:54.723Z,38.53
2023-10-13T14:26:31.389Z,39.34
2023-10-13T14:29:02.928Z,38.25
2023-10-13T14:31:31.324Z,37.75
2023-10-13T14:33:59.001Z,38.32
2023-10-13T14:36:29.665Z,37.38
2023-10-13T14:38:58.099Z,38.03
2023-10-13T14:41:25.314Z,37.65
2023-10-13T14:43:52.400Z,38.10
2023-10-13T14:46:24.465Z,38.07
2023-10-13T14:48:55.357Z,38.33
2023-10-13T14:51:22.428Z,39.21
2023-10-13T14:53:52.574Z,39.02
2023-10-13T14:56:21.277Z,39.29
2023-10-13T14:58:48.364Z,40.10
2023-10-13T15:01:25.664Z,38.87
2023-10-13T15:03:56.311Z,39.76
2023-10-13T15:06:31.638Z,40.53
2023-10-13T15:09:00.192Z,40.94
2023-10-13T15:11:44.168Z,41.61
2023-10-13T15:14:17.238Z,39.65
2023-10-13T15:16:45.203Z,41.14
2023-10-13T15:19:13.258Z,40.39
2023-10-13T15:21:41.324Z,41.90
2023-10-13T15:24:24.699Z,39.75
2023-10-13T15:27:01.925Z,41.98
2023-10-13T15:29:36.607Z,41.65
2023-10-13T15:32:04.976Z,41.55
2023-10-13T15:34:32.809Z,40.99
2023-10-13T15:37:01.695Z,41.87
2023-10-13T15:39:29.650Z,41.29
2023-10-13T15:42:00.399Z,41.89
2023-10-13T15:44:32.011Z,41.19
2023-10-13T15:49:35.185Z,41.06
2023-10-13T15:52:02.752Z,40.49
2023-10-13T15:54:29.906Z,41.26
2023-10-13T15:56:57.061Z,40.75
2023-10-13T15:59:24.614Z,41.50
2023-10-13T16:01:58.074Z,39.92
2023-10-13T16:04:25.495Z,40.25
2023-10-13T16:06:52.955Z,39.14
2023-10-13T16:09:24.656Z,38.73
2023-10-13T16:11:54.288Z,38.19
2023-10-13T16:14:22.903Z,39.30
2023-10-13T16:16:53.898Z,38.86
2023-10-13T16:19:24.025Z,37.01
2023-10-13T16:21:52.801Z,36.18
2023-10-13T16:24:21.549Z,37.36
2023-10-13T16:26:56.076Z,36.19
2023-10-13T16:29:23.319Z,36.88
2023-10-13T16:31:50.418Z,35.36
2023-10-13T16:34:18.932Z,37.28
2023-10-13T16:36:47.940Z,36.73
2023-10-13T16:39:16.223Z,36.21
2023-10-13T16:41:46.634Z,35.46
2023-10-13T16:44:14.040Z,35.37
2023-10-13T16:46:41.927Z,35.32
2023-10-13T16:49:09.853Z,36.14
2023-10-13T16:51:37.591Z,36.41
2023-10-13T16:54:05.995Z,35.38
2023-10-13T16:56:36.914Z,36.15
2023-10-13T16:59:06.298Z,36.06
2023-10-13T17:01:34.047Z,35.59
2023-10-13T17:04:01.481Z,34.86
2023-10-13T17:06:28.809Z,34.05
2023-10-13T17:08:57.044Z,35.04
2023-10-13T17:11:27.534Z,34.53
2023-10-13T17:13:54.591Z,34.85
2023-10-13T17:16:24.202Z,33.54
2023-10-13T17:18:53.082Z,35.29
2023-10-13T17:21:23.497Z,35.36
2023-10-13T17:23:52.482Z,35.08
2023-10-13T17:26:29.457Z,34.47
2023-10-13T17:28:59.709Z,34.29
2023-10-13T17:31:33.072Z,33.95
2023-10-13T17:34:00.967Z,34.33
2023-10-13T17:36:32.483Z,34.30
2023-10-13T17:39:02.199Z,33.79
2023-10-13T17:41:33.451Z,33.64
2023-10-13T17:44:03.193Z,32.87
2023-10-13T17:46:30.363Z,32.48
2023-10-13T17:48:57.709Z,33.20
2023-10-13T17:51:25.058Z,32.91
2023-10-13T17:53:53.724Z,33.96
2023-10-13T17:56:20.948Z,33.58
2023-10-13T17:58:48.188Z,33.95
2023-10-13T18:01:20.778Z,32.81
2023-10-13T18:03:50.514Z,32.72
2023-10-13T18:06:20.991Z,33.48
2023-10-13T18:08:53.025Z,32.68
2023-10-13T18:11:20.300Z,33.01
2023-10-13T18:13:49.374Z,32.16
2023-10-13T18:16:21.899Z,33.12
2023-10-13T18:18:56.860Z,32.74
2023-10-13T18:21:24.587Z,32.53
2023-10-13T18:23:53.892Z,33.17
2023-10-13T18:26:20.993Z,31.81
2023-10-13T18:28:51.934Z,31.42
2023-10-13T18:31:19.188Z,31.99
2023-10-13T18:33:47.218Z,30.92
2023-10-13T18:36:25.299Z,31.12
2023-10-13T18:38:52.837Z,31.79
2023-10-13T18:41:20.470Z,32.09
2023-10-13T18:43:48.591Z,31.83
2023-10-13T18:46:17.767Z,31.54
2023-10-13T18:48:46.525Z,31.30
2023-10-13T18:51:19.906Z,31.56
2023-10-13T18:53:49.079Z,31.46
2023-10-13T18:56:21.660Z,30.92
2023-10-13T18:58:57.324Z,31.24
2023-10-13T19:01:30.486Z,31.95
2023-10-13T19:04:03.944Z,32.67
2023-10-13T19:06:34.225Z,32.19
2023-10-13T19:09:05.747Z,31.53
2023-10-13T19:11:38.521Z,31.92
2023-10-13T19:14:11.304Z,32.16
2023-10-13T19:16:42.090Z,32.29
2023-10-13T19:19:09.452Z,31.99
2023-10-13T19:21:40.277Z,31.94
2023-10-13T19:24:07.889Z,31.62
2023-10-13T19:26:38.031Z,32.71
2023-10-13T19:29:06.690Z,31.96
2023-10-13T19:31:35.578Z,32.56
2023-10-13T19:34:05.768Z,32.42
2023-10-13T19:36:34.374Z,32.64
2023-10-13T19:39:08.335Z,32.79
2023-10-13T19:41:38.047Z,32.84
2023-10-13T19:44:05.698Z,32.57
2023-10-13T19:46:38.290Z,32.60
2023-10-13T19:49:06.606Z,32.14
2023-10-13T19:51:35.019Z,32.88
2023-10-13T19:54:04.159Z,32.81
2023-10-13T19:56:33.328Z,32.67
2023-10-13T19:59:02.519Z,32.77
2023-10-13T20:01:35.138Z,32.71
2023-10-13T20:04:07.801Z,33.16
2023-10-13T20:06:35.769Z,32.93
2023-10-13T20:09:10.295Z,33.79
2023-10-13T20:11:38.455Z,33.84
2023-10-13T20:14:05.908Z,33.82
2023-10-13T20:16:32.929Z,34.13
2023-10-13T20:19:00.385Z,34.43
2023-10-13T20:21:29.292Z,34.47
2023-10-13T20:24:01.529Z,34.50
2023-10-13T20:26:42.877Z,34.60
2023-10-13T20:29:16.902Z,34.87
2023-10-13T20:31:49.732Z,34.93
2023-10-13T20:34:21.296Z,35.08
2023-10-13T20:36:48.449Z,34.91
2023-10-13T20:39:25.177Z,35.07
2023-10-13T20:41:53.470Z,35.67
2023-10-13T20:44:29.610Z,35.46
2023-10-13T20:46:57.969Z,35.70
2023-10-13T20:49:27.721Z,35.71
2023-10-13T20:51:55.180Z,36.05
2023-10-13T20:54:22.610Z,36.03
2023-10-13T20:56:49.713Z,36.12
2023-10-13T20:59:16.960Z,36.34
2023-10-13T21:01:45.418Z,36.65
2023-10-13T21:04:12.966Z,36.56
2023-10-13T21:06:42.004Z,36.55
2023-10-13T21:09:13.721Z,36.54
2023-10-13T21:11:42.006Z,36.79
2023-10-13T21:14:09.044Z,36.99
2023-10-13T21:16:36.045Z,36.79
2023-10-13T21:19:06.027Z,37.07
2023-10-13T21:21:34.896Z,37.29
2023-10-13T21:24:05.175Z,37.20
2023-10-13T21:26:32.362Z,37.25
2023-10-13T21:28:59.575Z,37.52
2023-10-13T21:31:28.092Z,37.59
2023-10-13T21:33:56.427Z,37.51
2023-10-13T21:36:28.275Z,37.47
2023-10-13T21:38:59.016Z,37.97
2023-10-13T21:41:26.314Z,37.96
2023-10-13T21:43:55.706Z,38.14
2023-10-13T21:46:27.287Z,37.97
2023-10-13T21:48:55.253Z,38.09
2023-10-13T21:51:26.053Z,38.54
2023-10-13T21:53:53.857Z,38.57
2023-10-13T21:56:29.283Z,38.45
2023-10-13T21:58:59.412Z,38.35
2023-10-13T22:01:30.023Z,38.34
2023-10-13T22:04:10.997Z,38.65
2023-10-13T22:06:47.051Z,38.52
2023-10-13T22:09:15.403Z,38.92
2023-10-13T22:11:42.529Z,38.92
2023-10-13T22:14:13.980Z,39.24
2023-10-13T22:16:42.268Z,39.25
2023-10-13T22:19:09.391Z,39.62
2023-10-13T22:21:38.101Z,39.88
2023-10-13T22:24:05.572Z,40.38
2023-10-13T22:26:32.620Z,40.01
2023-10-13T22:29:00.046Z,40.52
2023-10-13T22:31:27.569Z,40.97
2023-10-13T22:33:56.136Z,41.11
2023-10-13T22:36:24.189Z,41.52
2023-10-13T22:38:59.343Z,40.90
2023-10-13T22:41:30.429Z,41.38
2023-10-13T22:43:58.440Z,41.25
2023-10-13T22:46:26.023Z,41.38
2023-10-13T22:48:53.476Z,41.20
2023-10-13T22:51:21.855Z,41.07
2023-10-13T22:53:49.009Z,41.00
2023-10-13T22:56:19.346Z,41.20
2023-10-13T22:58:50.036Z,41.05
2023-10-13T23:01:19.570Z,41.31
2023-10-13T23:03:56.769Z,41.63
2023-10-13T23:06:31.422Z,41.60
2023-10-13T23:09:12.781Z,41.72
2023-10-13T23:11:40.539Z,41.96
2023-10-13T23:14:12.811Z,42.11
2023-10-13T23:16:40.125Z,42.31
2023-10-13T23:19:07.736Z,42.08
2023-10-13T23:21:39.347Z,42.79
2023-10-13T23:24:10.281Z,42.25
2023-10-13T23:26:37.344Z,42.08
2023-10-13T23:29:05.696Z,42.41
2023-10-13T23:31:33.100Z,42.10
2023-10-13T23:34:01.797Z,42.52
2023-10-13T23:36:31.984Z,42.29
2023-10-13T23:39:09.921Z,42.23
2023-10-13T23:41:41.892Z,42.67
2023-10-13T23:44:15.998Z,42.56
2023-10-13T23:46:46.483Z,42.71
2023-10-13T23:49:19.239Z,42.52
2023-10-13T23:51:51.366Z,42.51
2023-10-13T23:54:18.830Z,42.65
2023-10-13T23:56:49.328Z,42.75
2023-10-13T23:59:27.873Z,42.86
